Mount Sterling, KY

7:48 AM EST on December 08, 2016 (GMT -0500)
Downtown | | Change Station

Elev 1001 ft 38.06 °N, 83.95 °W | Updated 17 seconds ago

Overcast
Overcast
29.7 °F
Feels Like 30 °F
N
1.7
Wind Variable Wind from ESE

Today
High -- | Low -- °F
--% Chance of Precip.
Yesterday
High -- | Low -- °F
Precip. -- in
Pressure 30.25 in
Visibility 10.0 miles
Clouds Overcast 7000 ft
Windchill 30 °F
Dew Point 23 °F
Humidity 75%
Rainfall 0.00 in
Snow Depth Not available.
7:39 AM 5:15 PM
Waxing Gibbous, 63% visible
METAR KIOB 081235Z AUTO 29004KT 10SM OVC070 M01/M05 A3025 RMK AO2
Pressure 30.25 in
Visibility 10.0 miles
Clouds Overcast 7000 ft
Windchill 30 °F
Dew Point 23 °F
Humidity 75%
Rainfall 0.00 in
Snow Depth Not available.
7:39 AM 5:15 PM
Waxing Gibbous, 63% visible
METAR KIOB 081235Z AUTO 29004KT 10SM OVC070 M01/M05 A3025 RMK AO2

10-Day Weather Forecast

Almanac

Astronomy

Dec. 08, 2016 Rise Set
Actual Time
Civil Twilight
Nautical Twilight
Astronomical Twilight
Moon
Length of Visible Light
Length of Day
Tomorrow will be .
, % of the Moon is Illuminated

Today's Extremes

State Highs State Lows

Community

WunderPhotos

Upload Photos

1,956,267 photos uploaded!

WunderBlog® & News

Nearby

Air Quality

  Air Quality AQ Index Pollutant
Not available.

Snow Depth

Station Depth Elevation

Earthquake Activity

City Distance Mag. Time & Date
Minimum magnitude displayed is 2.5.

Coastal Water Temperatures

Place Temperature

Stations

Nearby Weather Stations

Station Location Temp. Windchill Dew Point Humidity Wind Precip. Elev Updated Type
                   

Watches & Warnings

There are currently no watches in effect.